Time;durP1;ratioP1;P1;durP2;ratioP2;P2;SDS_P1;SDS_P2;PMS_P1;PMS_P2;Temp;Humidity;BMP_temperature;BMP_pressure;BME280_temperature;BME280_humidity;BME280_pressure;Samples;Min_cycle;Max_cycle;Signal;HPM_P1;HPM_P2
2023/03/10 05:06:24;;;;;;;;;33.75;28.50;;;;;;;;6117849;46;9999994;-65
2023/03/10 05:12:42;;;;;;;;;49.25;42.00;;;;;;;;6490697;39;8928;-63
2023/03/10 07:35:24;;;;;;;;;38.25;33.50;;;;;;;;6489932;31;9030;-65
2023/03/10 07:41:31;;;;;;;;;43.00;35.25;;;;;;;;6490299;47;9007;-65
2023/03/10 07:47:38;;;;;;;;;33.75;31.50;;;;;;;;6489112;47;9095;-64
2023/03/10 07:53:46;;;;;;;;;47.00;38.50;;;;;;;;6488535;47;8886;-65
2023/03/10 07:59:49;;;;;;;;;29.67;26.67;;;;;;;;6489227;39;8904;-65
2023/03/10 08:05:51;;;;;;;;;41.00;36.75;;;;;;;;6491007;31;9486;-66
2023/03/10 08:11:59;;;;;;;;;52.75;46.00;;;;;;;;6491613;31;8938;-64
2023/03/10 08:18:04;;;;;;;;;41.33;35.67;;;;;;;;6492120;39;9007;-66
2023/03/10 08:24:11;;;;;;;;;44.25;37.75;;;;;;;;6490728;39;8879;-65
2023/03/10 08:30:18;;;;;;;;;39.25;36.00;;;;;;;;6489992;39;8924;-65
2023/03/10 08:36:24;;;;;;;;;42.00;37.33;;;;;;;;6489861;39;8867;-64
2023/03/10 08:42:28;;;;;;;;;41.00;36.00;;;;;;;;6489395;39;8930;-67
2023/03/10 08:48:34;;;;;;;;;40.33;36.67;;;;;;;;6490311;31;8837;-65
2023/03/10 08:54:47;;;;;;;;;38.00;36.33;;;;;;;;6491408;39;8966;-64
2023/03/10 09:00:51;;;;;;;;;38.33;34.33;;;;;;;;6492216;39;9014;-66
2023/03/10 09:07:02;;;;;;;;;35.67;34.67;;;;;;;;6494973;46;8934;-65
2023/03/10 09:13:09;;;;;;;;;40.67;37.67;;;;;;;;6491730;31;8906;-65
2023/03/10 09:19:16;;;;;;;;;43.67;37.67;;;;;;;;6490613;46;8940;-65
2023/03/10 09:25:22;;;;;;;;;44.33;39.00;;;;;;;;6491308;39;9008;-65
2023/03/10 09:31:30;;;;;;;;;39.33;37.33;;;;;;;;6490197;46;8958;-65
2023/03/10 09:37:33;;;;;;;;;53.67;41.67;;;;;;;;6489439;46;8954;-65
2023/03/10 09:43:49;;;;;;;;;44.00;39.33;;;;;;;;6488942;46;8920;-64
2023/03/10 09:50:35;;;;;;;;;43.33;36.33;;;;;;;;6488392;46;9083;-66
2023/03/10 09:56:38;;;;;;;;;47.00;37.33;;;;;;;;6490415;31;9625;-66
2023/03/10 10:02:46;;;;;;;;;48.33;39.67;;;;;;;;6490969;39;8962;-64
2023/03/10 10:09:06;;;;;;;;;39.67;35.33;;;;;;;;6489866;31;8907;-64
2023/03/10 10:15:18;;;;;;;;;41.00;34.67;;;;;;;;6490790;31;8918;-67
2023/03/10 10:21:48;;;;;;;;;46.33;39.00;;;;;;;;6490188;39;8904;-66
2023/03/10 10:28:03;;;;;;;;;44.00;37.00;;;;;;;;6493375;46;8836;-65
2023/03/10 10:34:22;;;;;;;;;30.00;28.67;;;;;;;;6492313;39;8927;-63
2023/03/10 10:40:32;;;;;;;;;35.33;33.67;;;;;;;;6492591;46;8935;-65
2023/03/10 10:46:36;;;;;;;;;29.33;29.33;;;;;;;;6493665;39;8935;-65
2023/03/10 10:52:49;;;;;;;;;40.33;35.67;;;;;;;;6492327;46;8912;-67
2023/03/10 10:59:18;;;;;;;;;23.67;22.00;;;;;;;;6494056;39;9579;-64
2023/03/10 11:05:30;;;;;;;;;17.67;15.67;;;;;;;;6491555;39;8959;-67
2023/03/10 11:11:52;;;;;;;;;18.33;15.00;;;;;;;;6490162;39;8911;-67
2023/03/10 11:18:16;;;;;;;;;69.75;56.00;;;;;;;;6490760;46;8923;-66
2023/03/10 11:24:52;;;;;;;;;14.33;14.33;;;;;;;;6490461;39;8962;-67
2023/03/10 11:31:25;;;;;;;;;90.50;76.75;;;;;;;;6488808;39;8962;-65
2023/03/10 11:37:51;;;;;;;;;76.50;60.75;;;;;;;;6490465;47;9012;-64
2023/03/10 11:44:13;;;;;;;;;69.00;54.50;;;;;;;;6490484;46;8998;-65
2023/03/10 11:50:30;;;;;;;;;35.33;33.00;;;;;;;;6492486;39;9555;-65
2023/03/10 11:56:32;;;;;;;;;14.00;12.00;;;;;;;;6311439;39;10001299;-64
2023/03/10 12:02:54;;;;;;;;;14.67;13.67;;;;;;;;6492232;39;8936;-64
2023/03/10 12:09:49;;;;;;;;;43.67;40.00;;;;;;;;6491820;39;8980;-64
2023/03/10 12:15:58;;;;;;;;;24.33;23.00;;;;;;;;6490419;39;8876;-66
2023/03/10 12:22:23;;;;;;;;;22.33;17.00;;;;;;;;6490902;39;8919;-64
2023/03/10 12:28:28;;;;;;;;;9.00;9.00;;;;;;;;6490141;39;8910;-65
2023/03/10 12:34:33;;;;;;;;;23.33;22.00;;;;;;;;6491577;39;9481;-63
2023/03/10 12:40:50;;;;;;;;;36.33;34.67;;;;;;;;6491735;39;8993;-65
2023/03/10 12:47:21;;;;;;;;;22.33;20.00;;;;;;;;6492026;46;8887;-64
2023/03/10 12:53:26;;;;;;;;;5.50;5.50;;;;;;;;6491510;39;8915;-66
2023/03/10 13:00:11;;;;;;;;;12.75;12.75;;;;;;;;6492540;39;8922;-66
2023/03/10 13:06:23;;;;;;;;;21.67;21.00;;;;;;;;6491842;39;9010;-65
2023/03/10 13:12:38;;;;;;;;;14.25;11.00;;;;;;;;6492634;31;9021;-65
2023/03/10 13:18:49;;;;;;;;;16.00;14.00;;;;;;;;6491067;31;9051;-64
2023/03/10 13:24:59;;;;;;;;;12.00;12.00;;;;;;;;6496046;31;8911;-64
2023/03/10 13:31:18;;;;;;;;;16.00;15.00;;;;;;;;6492636;46;8920;-65
2023/03/10 13:37:20;;;;;;;;;11.00;8.25;;;;;;;;6492396;39;8864;-64
2023/03/10 13:43:28;;;;;;;;;15.00;13.75;;;;;;;;7490410;36;8909;-63
2023/03/10 13:49:36;;;;;;;;;30.67;27.33;;;;;;;;6491611;31;9345;-64
2023/03/10 13:55:39;;;;;;;;;48.67;40.33;;;;;;;;6491938;39;8836;-63
2023/03/10 14:01:45;;;;;;;;;10.33;8.67;;;;;;;;6491027;46;8917;-64
2023/03/10 14:08:01;;;;;;;;;11.33;10.67;;;;;;;;6489044;39;9597;-64
2023/03/10 14:14:08;;;;;;;;;8.67;7.67;;;;;;;;6489489;31;9128;-65
2023/03/10 14:20:42;;;;;;;;;11.67;10.00;;;;;;;;6490364;39;8875;-65
2023/03/10 14:26:47;;;;;;;;;11.33;11.33;;;;;;;;6490982;31;8987;-64
2023/03/10 14:32:49;;;;;;;;;9.33;9.33;;;;;;;;6489976;31;8954;-64
2023/03/10 14:38:55;;;;;;;;;11.00;11.00;;;;;;;;6489672;39;8880;-65
2023/03/10 14:45:06;;;;;;;;;15.33;13.00;;;;;;;;6490227;46;8995;-63
2023/03/10 14:51:19;;;;;;;;;9.67;9.67;;;;;;;;6491037;46;8872;-65
2023/03/10 14:57:42;;;;;;;;;13.67;12.00;;;;;;;;6490925;31;8945;-63
2023/03/10 15:03:47;;;;;;;;;11.33;9.67;;;;;;;;6489634;46;8966;-64
2023/03/10 15:09:53;;;;;;;;;8.33;8.33;;;;;;;;6492126;39;9066;-64
2023/03/10 15:16:13;;;;;;;;;13.33;12.67;;;;;;;;6490729;39;8944;-65
2023/03/10 15:22:17;;;;;;;;;11.00;9.00;;;;;;;;6491884;39;8914;-63
2023/03/10 15:28:21;;;;;;;;;8.33;7.67;;;;;;;;6490813;39;8877;-65
2023/03/10 15:34:23;;;;;;;;;11.33;11.33;;;;;;;;6490542;39;8919;-65
2023/03/10 15:40:29;;;;;;;;;12.00;11.33;;;;;;;;6492336;39;9991;-64
2023/03/10 15:46:36;;;;;;;;;20.33;20.33;;;;;;;;6490078;47;8920;-65
2023/03/10 15:52:54;;;;;;;;;7.33;7.33;;;;;;;;6492846;39;8830;-64
2023/03/10 15:58:58;;;;;;;;;9.00;8.33;;;;;;;;6490951;39;8927;-65
2023/03/10 16:05:04;;;;;;;;;10.00;10.00;;;;;;;;6490220;39;9121;-65
2023/03/10 16:11:16;;;;;;;;;17.00;15.00;;;;;;;;6491308;39;8920;-65
2023/03/10 16:17:19;;;;;;;;;16.00;16.00;;;;;;;;6490354;39;8903;-65
2023/03/10 16:23:25;;;;;;;;;21.00;20.33;;;;;;;;6491248;31;8897;-65
2023/03/10 16:29:30;;;;;;;;;17.67;17.67;;;;;;;;6491423;39;8910;-64
2023/03/10 16:35:32;;;;;;;;;22.67;21.67;;;;;;;;6492570;31;8980;-64
2023/03/10 16:41:34;;;;;;;;;22.67;20.00;;;;;;;;6491307;46;8926;-63
2023/03/10 16:47:40;;;;;;;;;15.33;14.33;;;;;;;;6491370;31;8909;-64
2023/03/10 16:53:42;;;;;;;;;9.33;9.33;;;;;;;;6491582;39;8844;-64
2023/03/10 16:59:45;;;;;;;;;14.33;12.67;;;;;;;;6491071;31;9096;-62
2023/03/10 17:05:53;;;;;;;;;10.33;10.33;;;;;;;;6490940;31;8930;-64
2023/03/10 17:11:55;;;;;;;;;14.33;14.00;;;;;;;;6491419;39;9652;-64
2023/03/10 17:17:58;;;;;;;;;20.33;17.00;;;;;;;;6491053;39;8953;-63
2023/03/10 17:24:02;;;;;;;;;18.00;13.33;;;;;;;;6491859;46;8822;-64
2023/03/10 17:30:05;;;;;;;;;10.00;10.00;;;;;;;;6491199;31;8891;-64
2023/03/10 17:36:13;;;;;;;;;33.67;25.33;;;;;;;;6490425;39;8952;-65
2023/03/10 17:42:16;;;;;;;;;9.33;9.33;;;;;;;;6490962;39;8943;-67
2023/03/10 17:48:30;;;;;;;;;13.00;13.00;;;;;;;;6490102;39;8940;-63
2023/03/10 17:54:34;;;;;;;;;22.00;20.00;;;;;;;;6491762;31;8942;-64
2023/03/10 18:00:38;;;;;;;;;23.25;19.25;;;;;;;;6490795;39;8917;-65
2023/03/10 18:06:41;;;;;;;;;20.25;16.25;;;;;;;;6489998;39;9025;-63
2023/03/10 18:12:45;;;;;;;;;19.67;19.67;;;;;;;;6491383;39;8869;-64
2023/03/10 18:18:48;;;;;;;;;21.00;21.00;;;;;;;;6490822;39;9296;-63
2023/03/10 18:24:55;;;;;;;;;23.67;23.00;;;;;;;;6491529;46;8908;-66
2023/03/10 18:30:57;;;;;;;;;20.25;20.25;;;;;;;;6490608;39;8899;-64
2023/03/10 18:37:00;;;;;;;;;15.00;13.00;;;;;;;;6489959;39;8909;-63
2023/03/10 18:43:07;;;;;;;;;19.67;15.67;;;;;;;;6490005;31;8931;-64
2023/03/10 18:49:10;;;;;;;;;15.33;14.00;;;;;;;;6489665;39;8909;-63
2023/03/10 18:55:13;;;;;;;;;17.25;16.50;;;;;;;;6491806;39;8944;-64
2023/03/10 19:01:16;;;;;;;;;11.67;11.33;;;;;;;;6490575;39;8877;-64
2023/03/10 19:07:23;;;;;;;;;20.00;20.00;;;;;;;;6491705;31;9027;-63
2023/03/10 19:13:28;;;;;;;;;17.67;17.00;;;;;;;;6490040;39;8901;-63
2023/03/10 19:19:32;;;;;;;;;20.25;19.00;;;;;;;;6490110;31;8876;-64
2023/03/10 19:25:35;;;;;;;;;15.67;15.67;;;;;;;;6489753;31;8901;-63
2023/03/10 19:31:38;;;;;;;;;17.25;17.25;;;;;;;;6489460;46;8899;-65
2023/03/10 19:37:45;;;;;;;;;16.67;14.00;;;;;;;;6490961;39;8973;-65
2023/03/10 19:43:49;;;;;;;;;21.75;18.00;;;;;;;;6490078;31;8906;-64
2023/03/10 19:50:04;;;;;;;;;16.00;16.00;;;;;;;;6489690;39;8857;-63
2023/03/10 19:56:09;;;;;;;;;21.00;19.33;;;;;;;;6489873;47;8851;-64
2023/03/10 20:02:17;;;;;;;;;24.50;20.50;;;;;;;;6489872;46;8905;-64
2023/03/10 20:08:23;;;;;;;;;21.00;20.50;;;;;;;;6492296;46;8906;-63
2023/03/10 20:14:25;;;;;;;;;21.00;19.00;;;;;;;;6491974;39;8881;-65
2023/03/10 20:20:30;;;;;;;;;21.75;20.00;;;;;;;;6492709;31;8868;-65
2023/03/10 20:26:39;;;;;;;;;22.67;22.33;;;;;;;;6490748;39;8944;-64
2023/03/10 20:32:44;;;;;;;;;28.00;22.00;;;;;;;;6491082;39;9588;-65
2023/03/10 20:38:48;;;;;;;;;31.50;27.25;;;;;;;;6491700;39;9175;-63
2023/03/10 20:44:54;;;;;;;;;30.00;29.00;;;;;;;;6490953;39;8867;-63
2023/03/10 20:50:59;;;;;;;;;25.25;25.25;;;;;;;;6492343;31;8878;-63
2023/03/10 20:57:03;;;;;;;;;27.25;26.00;;;;;;;;6490356;39;8875;-63
2023/03/10 21:03:16;;;;;;;;;37.50;30.75;;;;;;;;6491494;46;8993;-63
2023/03/10 21:09:18;;;;;;;;;26.00;23.75;;;;;;;;6491585;39;9018;-66
2023/03/10 21:15:20;;;;;;;;;28.75;28.50;;;;;;;;6491512;39;8936;-64
2023/03/10 21:21:25;;;;;;;;;30.00;29.00;;;;;;;;6492614;31;8867;-62
2023/03/10 21:27:29;;;;;;;;;31.25;31.25;;;;;;;;7110287;36;8909;-64
2023/03/10 21:33:33;;;;;;;;;31.25;30.75;;;;;;;;6491370;39;8937;-63
2023/03/10 21:39:36;;;;;;;;;28.00;25.75;;;;;;;;6491022;39;9972;-64
2023/03/10 21:45:39;;;;;;;;;20.00;20.00;;;;;;;;6490343;39;8974;-64
2023/03/10 21:51:45;;;;;;;;;23.75;21.75;;;;;;;;6492252;39;9034;-65
2023/03/10 21:57:50;;;;;;;;;22.00;20.25;;;;;;;;6490917;39;8922;-64
2023/03/10 22:03:53;;;;;;;;;29.25;26.50;;;;;;;;6490516;39;9040;-63
2023/03/10 22:09:57;;;;;;;;;30.25;28.75;;;;;;;;6490632;39;8908;-65
2023/03/10 22:16:03;;;;;;;;;31.75;25.50;;;;;;;;6490106;31;8968;-64
2023/03/10 22:22:06;;;;;;;;;23.50;22.00;;;;;;;;6490599;39;8970;-64
2023/03/10 22:28:12;;;;;;;;;24.25;22.50;;;;;;;;6492113;31;8917;-62
2023/03/10 22:34:19;;;;;;;;;32.50;28.75;;;;;;;;6492434;39;8886;-64
2023/03/10 22:40:24;;;;;;;;;34.00;27.75;;;;;;;;6490383;46;8917;-64
2023/03/10 22:46:27;;;;;;;;;30.25;26.75;;;;;;;;6490455;39;8943;-63
2023/03/10 22:52:30;;;;;;;;;36.00;33.25;;;;;;;;6492197;31;9001;-64
2023/03/10 22:58:34;;;;;;;;;39.50;32.25;;;;;;;;6489897;46;8929;-64
2023/03/10 23:04:41;;;;;;;;;37.00;35.75;;;;;;;;6490741;39;9571;-64
2023/03/10 23:10:47;;;;;;;;;36.75;34.50;;;;;;;;6489855;46;8843;-64
2023/03/10 23:16:55;;;;;;;;;31.67;28.33;;;;;;;;6489631;39;8969;-64
2023/03/10 23:23:00;;;;;;;;;36.75;36.50;;;;;;;;6490425;39;8998;-63
2023/03/10 23:29:05;;;;;;;;;30.75;30.50;;;;;;;;6489516;46;8964;-62
2023/03/10 23:35:11;;;;;;;;;31.75;31.75;;;;;;;;6491438;39;8912;-63
2023/03/10 23:41:17;;;;;;;;;34.00;33.00;;;;;;;;6489576;47;9147;-63
2023/03/10 23:47:19;;;;;;;;;30.50;29.00;;;;;;;;6489977;31;8937;-63
2023/03/10 23:53:24;;;;;;;;;30.00;30.00;;;;;;;;6490301;31;8873;-64
2023/03/10 23:59:26;;;;;;;;;38.50;32.75;;;;;;;;6490011;31;8923;-63
